< < Back
Terminal Aerodrome Forecast


Current Version              Previous Versions:   1  2  3  4  5  6  7  8  9  

Terminal Aerodrome Forecast

241
FTUS44 KMRX 021125
TAFTYS
TAF
KTYS 021125Z 0212/0312 23005KT P6SM BKN150
     FM022100 24008KT P6SM VCTS BKN050CB OVC150
      TEMPO 0222/0224 3SM TSRA BR BKN025CB OVC050
     FM030200 24005KT P6SM BKN080=

Latest METAR

313
SAUS80 KWBC 011700 RRQ
MTRTYS
METAR KTYS 021653Z 21010KT 10SM SCT032 SCT043 SCT250 29/22 A3008 RMK AO2
SLP174 T02890217


USA.gov is the U.S. government's official web portal to all federal, state and local government web resources and services.